Time;durP1;ratioP1;P1;durP2;ratioP2;P2;SDS_P1;SDS_P2;PMS_P1;PMS_P2;Temp;Humidity;BMP_temperature;BMP_pressure;BME280_temperature;BME280_humidity;BME280_pressure;Samples;Min_cycle;Max_cycle;Signal;HPM_P1;HPM_P2
2023/09/18 00:01:39;;;;;;;27.73;18.27;;;21.20;99.90;;;;;;5070453;28;20029;-74
2023/09/18 00:04:06;;;;;;;23.95;16.20;;;21.20;99.90;;;;;;5083322;28;20070;-75
2023/09/18 00:06:32;;;;;;;22.80;15.10;;;21.10;99.90;;;;;;5071572;28;20032;-75
2023/09/18 00:08:58;;;;;;;20.13;15.75;;;21.20;99.90;;;;;;5081295;28;20452;-74
2023/09/18 00:11:26;;;;;;;23.90;16.00;;;21.20;99.90;;;;;;5072424;28;20033;-75
2023/09/18 00:13:51;;;;;;;22.63;15.63;;;21.20;99.90;;;;;;5080656;28;20080;-76
2023/09/18 00:16:17;;;;;;;23.38;16.58;;;21.20;99.90;;;;;;5080415;28;20477;-75
2023/09/18 00:18:44;;;;;;;29.40;19.50;;;21.10;99.90;;;;;;5073072;28;20466;-75
2023/09/18 00:21:12;;;;;;;22.80;16.17;;;21.10;99.90;;;;;;5079376;28;20119;-75
2023/09/18 00:23:38;;;;;;;24.05;15.93;;;21.10;99.90;;;;;;5075795;28;20513;-75
2023/09/18 00:26:04;;;;;;;20.05;15.32;;;21.20;99.90;;;;;;5081577;28;20154;-75
2023/09/18 00:28:30;;;;;;;19.23;14.90;;;21.20;99.90;;;;;;5073835;28;20028;-75
2023/09/18 00:30:55;;;;;;;23.02;14.73;;;21.20;99.90;;;;;;5074820;28;20366;-75
2023/09/18 00:33:21;;;;;;;23.77;15.38;;;21.10;99.90;;;;;;5087281;28;20028;-73
2023/09/18 00:35:48;;;;;;;16.08;13.68;;;21.00;99.90;;;;;;5076569;28;20073;-73
2023/09/18 00:38:15;;;;;;;22.20;14.00;;;21.10;99.90;;;;;;5081379;28;20040;-75
2023/09/18 00:40:40;;;;;;;22.23;15.27;;;21.10;99.90;;;;;;5071778;28;20413;-75
2023/09/18 00:43:07;;;;;;;21.63;15.32;;;21.10;99.90;;;;;;5083266;28;20473;-75
2023/09/18 00:45:33;;;;;;;24.23;16.20;;;21.10;99.90;;;;;;5074430;28;20020;-75
2023/09/18 00:47:59;;;;;;;17.25;15.32;;;21.10;99.90;;;;;;5080500;28;20036;-75
2023/09/18 00:50:26;;;;;;;17.23;13.60;;;21.10;99.90;;;;;;5082608;28;20509;-75
2023/09/18 00:52:52;;;;;;;31.13;13.80;;;21.10;99.90;;;;;;5077484;28;20029;-76
2023/09/18 00:55:18;;;;;;;18.23;14.57;;;21.10;99.90;;;;;;5080391;28;20032;-76
2023/09/18 00:57:45;;;;;;;21.73;15.07;;;21.10;99.90;;;;;;5082472;28;20078;-75
2023/09/18 01:00:17;;;;;;;21.13;14.98;;;21.20;99.90;;;;;;5068450;28;20025;-75
2023/09/18 01:02:44;;;;;;;22.45;13.50;;;21.10;99.90;;;;;;5082169;28;20073;-75
2023/09/18 01:05:10;;;;;;;24.85;15.10;;;21.10;99.90;;;;;;5068570;28;20028;-76
2023/09/18 01:07:36;;;;;;;23.80;14.90;;;21.10;99.90;;;;;;5076264;28;20063;-74
2023/09/18 01:10:03;;;;;;;18.83;14.50;;;21.10;99.90;;;;;;5082294;28;20043;-76
2023/09/18 01:12:45;;;;;;;21.48;14.65;;;21.10;99.90;;;;;;5077084;28;20098;-76
2023/09/18 01:15:11;;;;;;;;;;;21.10;99.90;;;;;;5069411;28;20052;-76
2023/09/18 01:17:40;;;;;;;16.85;13.55;;;21.10;99.90;;;;;;5080119;28;20298;-76
2023/09/18 01:20:09;;;;;;;19.85;15.25;;;21.10;99.90;;;;;;5075635;28;20052;-74
2023/09/18 01:22:35;;;;;;;15.02;12.68;;;21.10;99.90;;;;;;5075962;28;20044;-76
2023/09/18 01:25:01;;;;;;;17.48;13.00;;;21.00;99.90;;;;;;5085557;28;20538;-76
2023/09/18 01:27:26;;;;;;;20.60;13.52;;;21.10;99.90;;;;;;5075648;28;20031;-76
2023/09/18 01:29:53;;;;;;;21.88;14.98;;;21.00;99.90;;;;;;5070104;28;20382;-76
2023/09/18 01:32:19;;;;;;;20.30;13.35;;;21.00;99.90;;;;;;5068083;28;20082;-76
2023/09/18 01:34:51;;;;;;;19.23;12.90;;;21.00;99.90;;;;;;5069812;28;20021;-77
2023/09/18 01:37:23;;;;;;;17.80;12.75;;;21.00;99.90;;;;;;5074214;28;20032;-76
2023/09/18 01:39:50;;;;;;;19.63;13.07;;;21.00;99.90;;;;;;5064114;28;20067;-76
2023/09/18 01:42:17;;;;;;;22.25;12.70;;;21.00;99.90;;;;;;5077002;28;20036;-76
2023/09/18 01:44:43;;;;;;;16.50;12.07;;;21.00;99.90;;;;;;5079196;28;20437;-76
2023/09/18 01:47:12;;;;;;;17.90;12.10;;;21.10;99.90;;;;;;5074107;28;20040;-76
2023/09/18 01:49:39;;;;;;;18.33;11.48;;;21.10;99.90;;;;;;5078551;28;20362;-76
2023/09/18 01:52:06;;;;;;;17.35;11.88;;;21.10;99.90;;;;;;5072533;28;20033;-76
2023/09/18 01:54:33;;;;;;;21.27;12.93;;;21.20;99.90;;;;;;5084233;28;20058;-76
2023/09/18 01:57:00;;;;;;;13.48;10.98;;;21.10;99.90;;;;;;5073817;28;20024;-76
2023/09/18 01:59:25;;;;;;;19.85;11.43;;;21.10;99.90;;;;;;5076240;28;20022;-76
2023/09/18 02:01:53;;;;;;;22.23;13.35;;;21.10;99.90;;;;;;5073099;28;20567;-75
2023/09/18 02:04:19;;;;;;;16.35;12.48;;;21.10;99.90;;;;;;5079552;28;20047;-76
2023/09/18 02:06:49;;;;;;;27.48;12.27;;;21.10;99.90;;;;;;5072951;28;20032;-76
2023/09/18 02:09:15;;;;;;;17.20;11.65;;;21.20;99.90;;;;;;5068347;28;20043;-75
2023/09/18 02:11:42;;;;;;;16.15;11.05;;;21.10;99.90;;;;;;5069332;28;20032;-75
2023/09/18 02:14:09;;;;;;;19.02;12.43;;;21.10;99.90;;;;;;5071755;28;20481;-76
2023/09/18 02:16:46;;;;;;;18.67;13.38;;;21.10;99.90;;;;;;5079244;28;20144;-76
2023/09/18 02:19:13;;;;;;;17.88;13.05;;;21.10;99.90;;;;;;5071730;28;20088;-76
2023/09/18 02:21:40;;;;;;;21.67;13.32;;;21.10;99.90;;;;;;5083018;28;20063;-77
2023/09/18 02:24:06;;;;;;;21.17;12.95;;;21.10;99.90;;;;;;5070682;28;20032;-76
2023/09/18 02:26:32;;;;;;;17.55;11.57;;;21.20;99.90;;;;;;5069370;28;20028;-75
2023/09/18 02:29:00;;;;;;;16.95;13.13;;;21.10;99.90;;;;;;5081423;28;20024;-76
2023/09/18 02:31:26;;;;;;;20.27;12.25;;;21.10;99.90;;;;;;5072834;28;20368;-76
2023/09/18 02:33:52;;;;;;;20.08;10.90;;;21.10;99.90;;;;;;5075277;28;20031;-76
2023/09/18 02:36:18;;;;;;;20.30;11.15;;;21.20;99.90;;;;;;5073923;28;20021;-76
2023/09/18 02:38:44;;;;;;;15.95;10.10;;;21.20;99.90;;;;;;5075338;28;20392;-77
2023/09/18 02:41:10;;;;;;;21.35;9.40;;;21.20;99.90;;;;;;5075410;28;20036;-77
2023/09/18 02:43:37;;;;;;;21.95;9.68;;;21.30;99.90;;;;;;5069694;28;20380;-77
2023/09/18 02:46:04;;;;;;;17.70;9.25;;;21.40;99.90;;;;;;5084211;28;20031;-78
2023/09/18 02:48:30;;;;;;;16.52;9.75;;;21.30;99.90;;;;;;5064789;28;20540;-78
2023/09/18 02:50:56;;;;;;;16.10;9.40;;;21.30;99.90;;;;;;5070543;28;20110;-77
2023/09/18 02:53:24;;;;;;;15.35;9.27;;;21.40;99.90;;;;;;5082011;28;20580;-77
2023/09/18 02:55:52;;;;;;;25.45;11.35;;;21.30;99.90;;;;;;5072151;28;20038;-77
2023/09/18 02:58:21;;;;;;;19.60;11.30;;;21.20;99.90;;;;;;5065252;28;20028;-76
2023/09/18 03:00:49;;;;;;;17.23;10.02;;;21.20;99.90;;;;;;5072724;28;20058;-75
2023/09/18 03:03:16;;;;;;;18.80;9.70;;;21.20;99.90;;;;;;5067894;28;20029;-77
2023/09/18 03:05:43;;;;;;;17.90;9.98;;;21.20;99.90;;;;;;5080495;28;20070;-77
2023/09/18 03:08:10;;;;;;;20.48;9.10;;;21.20;99.90;;;;;;5062986;28;20025;-77
2023/09/18 03:10:40;;;;;;;22.23;9.73;;;21.20;99.90;;;;;;5079286;28;20483;-76
2023/09/18 03:13:08;;;;;;;15.43;9.13;;;21.20;99.90;;;;;;5080586;28;20384;-77
2023/09/18 03:15:34;;;;;;;18.20;9.18;;;21.30;99.90;;;;;;5068950;28;20031;-77
2023/09/18 03:18:03;;;;;;;17.10;8.38;;;21.30;99.90;;;;;;5076265;28;20074;-74
2023/09/18 03:20:29;;;;;;;15.95;9.15;;;21.20;99.90;;;;;;5071116;28;20024;-75
2023/09/18 03:22:57;;;;;;;12.95;8.15;;;21.20;99.90;;;;;;5073193;28;20032;-75
2023/09/18 03:25:24;;;;;;;13.98;9.05;;;21.30;99.90;;;;;;5079505;28;20476;-77
2023/09/18 03:27:54;;;;;;;15.73;8.45;;;21.30;99.90;;;;;;5064526;28;20025;-78
2023/09/18 03:30:21;;;;;;;14.18;7.90;;;21.20;99.90;;;;;;5071356;28;20059;-78
2023/09/18 03:32:50;;;;;;;15.27;8.93;;;21.20;99.90;;;;;;5066989;28;20028;-77
2023/09/18 03:35:19;;;;;;;16.20;7.43;;;21.20;99.90;;;;;;5077758;28;20027;-78
2023/09/18 03:37:49;;;;;;;15.85;7.97;;;21.30;99.90;;;;;;5076816;28;20055;-79
2023/09/18 03:40:15;;;;;;;13.05;7.45;;;21.30;99.90;;;;;;5068508;28;20025;-78
2023/09/18 03:42:41;;;;;;;12.00;6.75;;;21.40;99.90;;;;;;5063649;28;20115;-75
2023/09/18 03:45:08;;;;;;;9.60;7.10;;;21.40;99.90;;;;;;5068501;28;20104;-78
2023/09/18 03:47:41;;;;;;;11.68;7.40;;;21.40;99.90;;;;;;5076638;28;20024;-79
2023/09/18 03:50:11;;;;;;;14.93;7.93;;;21.50;99.90;;;;;;5077415;28;20028;-76
2023/09/18 03:52:38;;;;;;;11.93;6.82;;;21.50;99.90;;;;;;5075768;28;20477;-78
2023/09/18 03:55:05;;;;;;;11.63;6.78;;;21.50;99.90;;;;;;5075396;28;20045;-79
2023/09/18 03:57:30;;;;;;;10.98;7.38;;;21.50;99.90;;;;;;5080174;28;20036;-79
2023/09/18 03:59:56;;;;;;;11.70;6.95;;;21.50;99.90;;;;;;5071208;28;20417;-77
2023/09/18 04:02:25;;;;;;;12.32;7.30;;;21.50;99.90;;;;;;5072613;28;20040;-75
2023/09/18 04:04:51;;;;;;;10.55;5.97;;;21.50;99.90;;;;;;5075130;28;20055;-78
2023/09/18 04:07:19;;;;;;;9.10;5.40;;;21.50;99.90;;;;;;5074534;28;20574;-78
2023/09/18 04:09:45;;;;;;;14.25;6.22;;;21.40;99.90;;;;;;5077203;28;20077;-78
2023/09/18 04:12:10;;;;;;;11.73;6.45;;;21.40;99.90;;;;;;5074827;28;20496;-78
2023/09/18 04:14:36;;;;;;;9.32;6.15;;;21.50;99.90;;;;;;5074220;28;20013;-79
2023/09/18 04:17:02;;;;;;;50.53;7.22;;;21.50;99.90;;;;;;5081070;28;20491;-78
2023/09/18 04:19:28;;;;;;;8.98;5.97;;;21.50;99.90;;;;;;5069354;28;20042;-79
2023/09/18 04:21:54;;;;;;;10.75;6.50;;;21.50;99.90;;;;;;5083625;28;20399;-79
2023/09/18 04:24:20;;;;;;;7.68;5.40;;;21.50;99.90;;;;;;5063288;28;20477;-78
2023/09/18 04:26:46;;;;;;;12.95;5.65;;;21.50;99.90;;;;;;5078879;28;20024;-78
2023/09/18 04:29:12;;;;;;;11.02;5.65;;;21.40;99.90;;;;;;5075553;28;20390;-74
2023/09/18 04:31:38;;;;;;;7.25;4.85;;;21.50;99.90;;;;;;5070216;28;20062;-78
2023/09/18 04:34:04;;;;;;;9.70;5.22;;;21.40;99.90;;;;;;5072409;28;20025;-72
2023/09/18 04:36:29;;;;;;;9.65;5.63;;;21.40;99.90;;;;;;5078250;28;21482;-77
2023/09/18 04:38:55;;;;;;;9.93;5.45;;;21.40;99.90;;;;;;5064835;28;20033;-79
2023/09/18 04:41:21;;;;;;;10.55;4.78;;;21.30;99.90;;;;;;5077623;28;20028;-79
2023/09/18 04:43:47;;;;;;;10.65;5.07;;;21.30;99.90;;;;;;5077082;28;20408;-78
2023/09/18 04:46:12;;;;;;;9.50;4.82;;;21.30;99.90;;;;;;5070097;28;20033;-77
2023/09/18 04:48:38;;;;;;;9.70;4.35;;;21.20;99.90;;;;;;5082902;28;20020;-76
2023/09/18 04:51:04;;;;;;;7.40;4.32;;;21.30;99.90;;;;;;5074153;28;20100;-76
2023/09/18 04:53:32;;;;;;;6.50;3.72;;;21.30;99.90;;;;;;5077055;28;20025;-78
2023/09/18 04:55:58;;;;;;;8.15;4.45;;;21.20;99.90;;;;;;5073749;28;20036;-77
2023/09/18 04:58:24;;;;;;;11.50;3.92;;;21.20;99.90;;;;;;5076883;28;20142;-78
2023/09/18 05:00:57;;;;;;;8.60;3.90;;;21.20;99.90;;;;;;5069727;28;20442;-77
2023/09/18 05:03:23;;;;;;;6.15;3.35;;;21.20;99.90;;;;;;5071270;28;20116;-77
2023/09/18 05:05:49;;;;;;;7.68;3.60;;;21.10;99.90;;;;;;5075915;28;20111;-77
2023/09/18 05:08:16;;;;;;;6.32;3.22;;;21.10;99.90;;;;;;5078083;28;20031;-76
2023/09/18 05:10:42;;;;;;;9.15;3.38;;;21.10;99.90;;;;;;5078863;28;20016;-79
2023/09/18 05:13:08;;;;;;;3.78;3.08;;;21.10;99.90;;;;;;5072039;28;20031;-77
2023/09/18 05:15:33;;;;;;;5.90;3.20;;;21.00;99.90;;;;;;5079492;28;20028;-77
2023/09/18 05:18:00;;;;;;;6.78;3.95;;;21.00;99.90;;;;;;5069479;28;20059;-77
2023/09/18 05:20:30;;;;;;;8.35;2.78;;;21.10;99.90;;;;;;5082252;28;20484;-77
2023/09/18 05:22:58;;;;;;;8.75;3.33;;;21.10;99.90;;;;;;5069615;28;20123;-77
2023/09/18 05:25:25;;;;;;;6.70;2.80;;;21.00;99.90;;;;;;5073487;28;20020;-77
2023/09/18 05:27:58;;;;;;;5.60;3.08;;;21.10;99.90;;;;;;5073346;28;20029;-76
2023/09/18 05:30:30;;;;;;;6.85;2.67;;;21.00;99.90;;;;;;5082437;28;20104;-76
2023/09/18 05:32:56;;;;;;;6.15;2.67;;;21.10;99.90;;;;;;5075914;28;20036;-76
2023/09/18 05:35:23;;;;;;;4.80;2.75;;;21.00;99.90;;;;;;5069095;28;20025;-76
2023/09/18 05:37:51;;;;;;;3.17;2.42;;;21.10;99.90;;;;;;5080222;28;20036;-75
2023/09/18 05:40:17;;;;;;;4.43;2.70;;;21.00;99.90;;;;;;5071976;28;20122;-76
2023/09/18 05:42:43;;;;;;;3.85;2.22;;;21.00;99.90;;;;;;5077224;28;20028;-76
2023/09/18 05:45:11;;;;;;;3.53;2.42;;;21.00;99.90;;;;;;5085025;28;20027;-76
2023/09/18 05:47:38;;;;;;;8.60;2.47;;;21.00;99.90;;;;;;5069093;28;20028;-75
2023/09/18 05:50:09;;;;;;;3.47;2.13;;;21.00;99.90;;;;;;5079387;28;20032;-76
2023/09/18 05:52:35;;;;;;;5.13;2.28;;;21.00;99.90;;;;;;5074404;28;20055;-75
2023/09/18 05:55:03;;;;;;;5.32;2.53;;;21.00;99.90;;;;;;5072445;28;20032;-71
2023/09/18 05:57:28;;;;;;;5.10;2.80;;;21.00;99.90;;;;;;5084780;28;20024;-75
2023/09/18 05:59:56;;;;;;;5.07;2.30;;;21.00;99.90;;;;;;5078075;28;20037;-76
2023/09/18 06:02:22;;;;;;;4.90;2.13;;;21.00;99.90;;;;;;5079193;28;20040;-76
2023/09/18 06:04:49;;;;;;;8.02;2.88;;;21.00;99.90;;;;;;5074547;28;20488;-77
2023/09/18 06:07:14;;;;;;;3.10;2.10;;;20.90;99.90;;;;;;5070392;28;20063;-77
2023/09/18 06:09:41;;;;;;;6.18;2.63;;;20.90;99.90;;;;;;5081036;28;20488;-75
2023/09/18 06:12:09;;;;;;;2.83;2.60;;;21.00;99.90;;;;;;5063862;28;20056;-75
2023/09/18 06:14:37;;;;;;;6.05;2.47;;;20.90;99.90;;;;;;5071126;28;20024;-75
2023/09/18 06:17:05;;;;;;;6.90;2.75;;;20.90;99.90;;;;;;5062784;28;20042;-75
2023/09/18 06:19:31;;;;;;;4.05;2.20;;;20.90;99.90;;;;;;5076016;28;20519;-76
2023/09/18 06:21:57;;;;;;;6.07;2.80;;;20.90;99.90;;;;;;5078302;28;20033;-76
2023/09/18 06:24:22;;;;;;;4.85;2.30;;;21.00;99.90;;;;;;5069851;28;20025;-76
2023/09/18 06:26:48;;;;;;;9.85;2.80;;;20.90;99.90;;;;;;5078473;28;20408;-76
2023/09/18 06:29:14;;;;;;;3.65;2.28;;;20.90;99.90;;;;;;5073954;28;20081;-75
2023/09/18 06:31:40;;;;;;;4.47;2.33;;;20.80;99.90;;;;;;5072821;28;20025;-75
2023/09/18 06:34:06;;;;;;;7.60;2.75;;;20.90;99.90;;;;;;5077245;28;20452;-75
2023/09/18 06:36:31;;;;;;;6.88;2.13;;;20.90;99.90;;;;;;5072800;28;20020;-75
2023/09/18 06:38:58;;;;;;;3.17;2.08;;;21.00;99.90;;;;;;5080611;28;20389;-74
2023/09/18 06:41:23;;;;;;;4.93;2.33;;;20.90;99.90;;;;;;5070971;28;20119;-74
2023/09/18 06:43:49;;;;;;;5.25;2.05;;;20.90;99.90;;;;;;5070100;28;20185;-76
2023/09/18 06:46:15;;;;;;;5.78;2.55;;;20.90;99.90;;;;;;5079245;28;20032;-73
2023/09/18 06:48:45;;;;;;;6.95;2.50;;;20.80;99.90;;;;;;5066965;28;20524;-76
2023/09/18 06:51:11;;;;;;;3.83;2.30;;;20.90;99.90;;;;;;5078722;28;20388;-76
2023/09/18 06:53:37;;;;;;;3.45;2.45;;;21.00;99.90;;;;;;5068645;28;20021;-76
2023/09/18 06:56:03;;;;;;;3.95;2.35;;;21.00;99.90;;;;;;5075673;28;20035;-75
2023/09/18 06:58:29;;;;;;;2.85;2.08;;;21.00;99.90;;;;;;5073001;28;20017;-75
2023/09/18 07:00:57;;;;;;;6.28;2.20;;;21.00;99.90;;;;;;5073238;28;20028;-75
2023/09/18 07:03:23;;;;;;;2.50;1.95;;;20.90;99.90;;;;;;5067967;28;20116;-73
2023/09/18 07:05:49;;;;;;;7.55;2.35;;;20.90;99.90;;;;;;5071527;28;20473;-75
2023/09/18 07:08:19;;;;;;;3.53;2.28;;;21.00;99.90;;;;;;5076644;28;20036;-75
2023/09/18 07:10:45;;;;;;;6.88;2.20;;;21.00;99.90;;;;;;5071385;28;20036;-75
2023/09/18 07:13:11;;;;;;;5.38;2.15;;;20.90;99.90;;;;;;5070691;28;20381;-77
2023/09/18 07:15:37;;;;;;;6.57;2.08;;;20.90;99.90;;;;;;5077713;28;20027;-75
2023/09/18 07:18:03;;;;;;;4.35;2.10;;;21.00;99.90;;;;;;5065408;28;20025;-75
2023/09/18 07:20:30;;;;;;;4.65;2.00;;;21.00;99.90;;;;;;5077399;28;20036;-74
2023/09/18 07:22:56;;;;;;;4.25;1.90;;;21.00;99.90;;;;;;5065059;28;20033;-75
2023/09/18 07:25:22;;;;;;;5.15;2.10;;;21.10;99.90;;;;;;5078944;28;20024;-75
2023/09/18 07:27:47;;;;;;;3.47;2.00;;;21.10;99.90;;;;;;5073432;28;20107;-75
2023/09/18 07:30:19;;;;;;;4.38;2.05;;;21.10;99.90;;;;;;5068215;28;20024;-75
2023/09/18 07:32:45;;;;;;;5.40;2.45;;;21.10;99.90;;;;;;5074648;28;20066;-75
2023/09/18 07:35:13;;;;;;;5.28;2.30;;;21.10;99.90;;;;;;5064146;28;20021;-76
2023/09/18 07:37:39;;;;;;;3.08;1.70;;;21.10;99.90;;;;;;5076363;28;20032;-75
2023/09/18 07:40:06;;;;;;;5.72;2.25;;;21.20;99.90;;;;;;5062890;28;20039;-75
2023/09/18 07:42:33;;;;;;;5.75;1.88;;;21.20;99.90;;;;;;5075375;28;20416;-75
2023/09/18 07:44:59;;;;;;;5.20;1.67;;;21.20;99.90;;;;;;5074417;28;20052;-76
2023/09/18 07:47:25;;;;;;;3.53;1.85;;;21.20;99.90;;;;;;5072507;28;20081;-76
2023/09/18 07:49:51;;;;;;;6.15;2.17;;;21.30;99.90;;;;;;5070121;28;20036;-75
2023/09/18 07:52:17;;;;;;;3.47;2.33;;;21.20;99.90;;;;;;5073013;28;20040;-74
2023/09/18 07:54:44;;;;;;;2.92;2.33;;;21.20;99.90;;;;;;5065649;28;20064;-75
2023/09/18 07:57:10;;;;;;;3.83;2.00;;;21.20;99.90;;;;;;5082139;28;20020;-76
2023/09/18 07:59:36;;;;;;;7.00;2.22;;;21.20;99.90;;;;;;5067610;28;20548;-76
2023/09/18 08:02:02;;;;;;;4.30;2.00;;;21.30;99.90;;;;;;5081056;28;20032;-75
2023/09/18 08:04:31;;;;;;;2.90;1.70;;;21.20;99.90;;;;;;5066326;28;20499;-76
2023/09/18 08:06:57;;;;;;;5.22;2.00;;;21.20;99.90;;;;;;5077712;28;20069;-76
2023/09/18 08:09:23;;;;;;;3.08;2.10;;;21.20;99.90;;;;;;5073688;28;20117;-75
2023/09/18 08:11:49;;;;;;;6.30;2.38;;;21.20;99.90;;;;;;5065866;28;20028;-75
2023/09/18 08:14:17;;;;;;;6.57;2.35;;;21.30;99.90;;;;;;5078753;28;20411;-72
2023/09/18 08:16:42;;;;;;;3.78;2.10;;;21.30;99.90;;;;;;5070953;28;20028;-73
2023/09/18 08:19:09;;;;;;;3.38;1.70;;;21.40;99.90;;;;;;5077434;28;20488;-73
2023/09/18 08:21:35;;;;;;;3.05;1.80;;;21.40;99.90;;;;;;5076542;28;20044;-73
2023/09/18 08:24:01;;;;;;;4.35;2.13;;;21.50;99.90;;;;;;5079902;28;20515;-73
2023/09/18 08:26:27;;;;;;;4.85;2.28;;;21.60;99.90;;;;;;5083725;28;20062;-73
2023/09/18 08:28:53;;;;;;;3.65;2.33;;;21.50;99.90;;;;;;5075825;28;20036;-73
2023/09/18 08:31:18;;;;;;;6.07;2.03;;;21.50;99.90;;;;;;5072458;28;20020;-73
2023/09/18 08:33:44;;;;;;;4.47;2.15;;;21.40;99.90;;;;;;5076427;28;20032;-73
2023/09/18 08:36:10;;;;;;;5.13;2.17;;;21.50;99.90;;;;;;5071492;28;20025;-73
2023/09/18 08:38:36;;;;;;;4.22;1.85;;;21.40;99.90;;;;;;5083422;28;20028;-72
2023/09/18 08:41:03;;;;;;;3.70;2.42;;;21.50;99.90;;;;;;5076513;28;20044;-73
2023/09/18 08:43:30;;;;;;;3.33;2.28;;;21.60;99.90;;;;;;5073613;28;20123;-73
2023/09/18 08:46:01;;;;;;;5.38;2.20;;;21.60;99.90;;;;;;5082964;28;20028;-73
2023/09/18 08:48:34;;;;;;;4.63;1.88;;;21.70;99.90;;;;;;5069656;28;20016;-72
2023/09/18 08:51:05;;;;;;;5.57;1.90;;;21.60;99.90;;;;;;5081635;28;20111;-72
2023/09/18 08:53:32;;;;;;;4.85;2.75;;;21.60;99.90;;;;;;5073701;28;20032;-73
2023/09/18 08:56:01;;;;;;;5.40;2.50;;;21.50;99.90;;;;;;5079335;28;20021;-73
2023/09/18 08:58:37;;;;;;;5.55;2.60;;;21.60;99.90;;;;;;5079477;28;20025;-73
2023/09/18 09:01:05;;;;;;;4.30;2.20;;;21.70;99.90;;;;;;5070242;28;20067;-72
2023/09/18 09:03:34;;;;;;;5.35;2.60;;;21.80;99.90;;;;;;5080052;28;20063;-73
2023/09/18 09:06:01;;;;;;;4.40;2.80;;;21.80;99.90;;;;;;5073353;28;20619;-73
2023/09/18 09:08:28;;;;;;;7.85;2.88;;;21.90;99.90;;;;;;5075036;28;20029;-72
2023/09/18 09:10:54;;;;;;;4.90;2.40;;;21.90;99.90;;;;;;5076903;28;20025;-73
2023/09/18 09:13:25;;;;;;;8.85;2.55;;;22.00;99.90;;;;;;5080105;28;20049;-72
2023/09/18 09:15:55;;;;;;;4.85;2.55;;;22.20;99.90;;;;;;5077922;28;20025;-72
2023/09/18 09:18:25;;;;;;;4.68;2.33;;;22.50;99.90;;;;;;5069156;28;20013;-72
2023/09/18 09:21:03;;;;;;;5.95;2.88;;;22.50;99.90;;;;;;5081372;28;20035;-72
2023/09/18 09:23:44;;;;;;;3.92;2.53;;;22.70;99.90;;;;;;5067892;28;20082;-72
2023/09/18 09:26:15;;;;;;;4.47;2.50;;;22.80;99.90;;;;;;5081462;28;20027;-73
2023/09/18 09:28:43;;;;;;;6.00;3.38;;;22.80;99.90;;;;;;5075417;28;20526;-73
2023/09/18 09:31:10;;;;;;;3.85;2.30;;;22.80;99.90;;;;;;5073955;28;20427;-73
2023/09/18 09:33:40;;;;;;;5.65;2.70;;;22.70;99.90;;;;;;5064641;28;20028;-72
2023/09/18 09:36:07;;;;;;;4.15;2.75;;;22.70;99.90;;;;;;5082660;28;20038;-73
2023/09/18 09:38:34;;;;;;;6.03;2.40;;;22.70;99.90;;;;;;5079332;28;20025;-72
2023/09/18 09:41:06;;;;;;;4.72;2.55;;;22.80;99.90;;;;;;5070765;28;20029;-72
2023/09/18 09:43:33;;;;;;;5.80;2.60;;;23.00;99.90;;;;;;5075981;28;20044;-72
2023/09/18 09:46:03;;;;;;;6.03;2.60;;;23.10;99.90;;;;;;5072852;28;20419;-72
2023/09/18 09:48:32;;;;;;;5.28;3.03;;;23.10;99.90;;;;;;5077677;28;20302;-72
2023/09/18 09:51:00;;;;;;;6.97;2.50;;;23.10;99.90;;;;;;5072994;28;20024;-72
2023/09/18 09:53:47;;;;;;;6.10;2.63;;;23.10;99.90;;;;;;5082339;28;20119;-72
2023/09/18 09:56:14;;;;;;;2.85;2.40;;;23.10;99.90;;;;;;5076715;28;20168;-71
2023/09/18 09:58:43;;;;;;;5.55;2.80;;;23.00;99.90;;;;;;5080573;28;20059;-71
2023/09/18 10:01:17;;;;;;;5.70;3.08;;;22.90;99.90;;;;;;5079612;28;20016;-71
2023/09/18 10:03:44;;;;;;;5.55;2.70;;;22.90;99.90;;;;;;5072881;28;20053;-72
2023/09/18 10:06:13;;;;;;;5.47;2.85;;;22.90;99.90;;;;;;5070964;28;20025;-71
2023/09/18 10:08:39;;;;;;;3.97;3.08;;;22.80;99.90;;;;;;5069595;28;20040;-70
2023/09/18 10:11:09;;;;;;;4.15;3.08;;;22.70;99.90;;;;;;5077392;28;20041;-72
2023/09/18 10:13:53;;;;;;;5.03;2.88;;;22.60;99.90;;;;;;5063726;28;20047;-71
2023/09/18 10:16:25;;;;;;;9.70;2.92;;;22.50;99.90;;;;;;5074075;28;20027;-71
2023/09/18 10:18:52;;;;;;;6.63;3.45;;;22.50;99.90;;;;;;5070846;28;20081;-73
2023/09/18 10:21:44;;;;;;;5.05;3.00;;;22.50;99.90;;;;;;5068647;28;20024;-74
2023/09/18 10:24:15;;;;;;;7.00;3.20;;;22.70;99.90;;;;;;5069852;28;20127;-72
2023/09/18 10:26:55;;;;;;;10.30;3.60;;;22.70;99.90;;;;;;5080180;28;20024;-72
2023/09/18 10:29:26;;;;;;;8.05;3.33;;;22.70;99.90;;;;;;5067149;28;20024;-73
2023/09/18 10:31:54;;;;;;;4.28;3.08;;;22.80;99.90;;;;;;5080706;28;20528;-72
2023/09/18 10:34:22;;;;;;;4.85;2.90;;;22.70;99.90;;;;;;5068241;28;20017;-72
2023/09/18 10:36:49;;;;;;;5.15;2.80;;;22.80;99.90;;;;;;5068684;28;20075;-72
2023/09/18 10:39:19;;;;;;;6.00;2.88;;;22.80;99.90;;;;;;5078124;28;20029;-73
2023/09/18 10:41:48;;;;;;;5.25;2.80;;;22.70;99.90;;;;;;5074078;28;20059;-73
2023/09/18 10:44:18;;;;;;;5.68;3.67;;;22.80;99.90;;;;;;5071440;28;20025;-75
2023/09/18 10:46:48;;;;;;;9.23;3.30;;;22.80;99.90;;;;;;5079021;28;20028;-72
2023/09/18 10:49:16;;;;;;;6.55;3.60;;;22.90;99.90;;;;;;5069817;28;20073;-73
2023/09/18 10:51:43;;;;;;;8.40;3.47;;;23.00;99.90;;;;;;5070152;28;20089;-73
2023/09/18 10:54:09;;;;;;;5.78;2.83;;;23.00;99.90;;;;;;5072113;28;20488;-73
2023/09/18 10:56:35;;;;;;;3.60;3.22;;;23.10;99.90;;;;;;5073052;28;20497;-72
2023/09/18 10:59:05;;;;;;;5.20;3.70;;;23.10;99.90;;;;;;5071301;28;20051;-72
2023/09/18 11:01:31;;;;;;;3.65;3.30;;;23.10;99.90;;;;;;5076381;28;20055;-72
2023/09/18 11:04:01;;;;;;;8.70;3.15;;;23.20;99.90;;;;;;5079646;28;20028;-72
2023/09/18 11:06:29;;;;;;;4.40;2.78;;;23.30;99.90;;;;;;5063551;28;20041;-72
2023/09/18 11:09:06;;;;;;;5.85;2.70;;;23.50;99.90;;;;;;5076006;28;20047;-72
2023/09/18 11:11:35;;;;;;;6.50;3.45;;;23.80;99.90;;;;;;5065422;28;20608;-73
2023/09/18 11:14:02;;;;;;;6.40;3.40;;;23.70;99.90;;;;;;5065882;28;20025;-73
2023/09/18 11:16:27;;;;;;;5.03;2.70;;;24.00;99.90;;;;;;5075485;28;20044;-72
2023/09/18 11:19:05;;;;;;;7.20;2.83;;;24.20;99.90;;;;;;5075417;28;20064;-73
2023/09/18 11:21:34;;;;;;;5.03;2.83;;;24.20;99.90;;;;;;5073774;28;20361;-73
2023/09/18 11:24:03;;;;;;;3.90;2.92;;;24.50;99.90;;;;;;5071933;28;20024;-73
2023/09/18 11:26:31;;;;;;;5.50;3.08;;;24.80;99.90;;;;;;5078136;28;20024;-73
2023/09/18 11:29:06;;;;;;;5.57;3.50;;;24.90;99.90;;;;;;5069134;28;20029;-73
2023/09/18 11:31:50;;;;;;;2.97;2.33;;;25.00;99.90;;;;;;5070401;28;20024;-73
2023/09/18 11:34:28;;;;;;;5.55;2.60;;;25.00;99.90;;;;;;5076703;28;20103;-73
2023/09/18 11:36:55;;;;;;;3.60;2.60;;;24.80;99.90;;;;;;5073385;28;20059;-74
2023/09/18 11:39:35;;;;;;;6.28;2.97;;;24.50;99.90;;;;;;5069485;28;20020;-73
2023/09/18 11:42:11;;;;;;;5.85;2.92;;;24.40;99.90;;;;;;5073991;28;20056;-73
2023/09/18 11:44:41;;;;;;;6.50;2.90;;;24.20;99.90;;;;;;5055020;28;20429;-72
2023/09/18 11:47:12;;;;;;;6.97;2.88;;;24.20;99.90;;;;;;5081107;28;20108;-73
2023/09/18 11:49:42;;;;;;;8.18;3.42;;;24.60;99.90;;;;;;5062954;28;20013;-73
2023/09/18 11:52:09;;;;;;;5.65;2.83;;;24.80;99.90;;;;;;5068895;28;20116;-74
2023/09/18 11:54:35;;;;;;;8.00;3.35;;;24.90;99.90;;;;;;5080430;28;20072;-72
2023/09/18 11:57:06;;;;;;;5.75;2.97;;;24.70;99.90;;;;;;5078151;28;20110;-74
2023/09/18 11:59:38;;;;;;;5.03;3.00;;;24.70;99.90;;;;;;5071742;28;20024;-73
2023/09/18 12:02:06;;;;;;;6.35;3.30;;;24.60;99.90;;;;;;5076810;28;20135;-74
2023/09/18 12:04:33;;;;;;;4.82;3.05;;;24.50;99.90;;;;;;5077422;28;20410;-74
2023/09/18 12:07:03;;;;;;;3.65;2.83;;;24.60;99.90;;;;;;5071272;28;20043;-73
2023/09/18 12:09:31;;;;;;;6.90;3.40;;;24.60;99.90;;;;;;5066035;28;20033;-74
2023/09/18 12:12:04;;;;;;;6.93;2.92;;;24.60;99.90;;;;;;5074462;28;20024;-73
2023/09/18 12:14:32;;;;;;;5.50;2.72;;;24.50;99.90;;;;;;5070835;28;20407;-74
2023/09/18 12:17:06;;;;;;;5.00;2.70;;;24.30;99.90;;;;;;5071564;28;20051;-73
2023/09/18 12:19:34;;;;;;;6.10;3.22;;;24.20;99.90;;;;;;5069900;28;20056;-74
2023/09/18 12:22:00;;;;;;;5.47;3.10;;;24.40;99.90;;;;;;5078755;28;20098;-74
2023/09/18 12:24:25;;;;;;;2.58;2.38;;;24.70;99.90;;;;;;5069373;28;20453;-74
2023/09/18 12:26:52;;;;;;;4.28;2.85;;;24.80;99.90;;;;;;5080170;28;20032;-74
2023/09/18 12:29:21;;;;;;;5.32;2.80;;;24.70;99.90;;;;;;5079254;28;20460;-74
2023/09/18 12:31:50;;;;;;;6.35;2.30;;;24.50;99.90;;;;;;5072804;28;20027;-75
2023/09/18 12:34:21;;;;;;;6.75;2.72;;;24.60;99.90;;;;;;5072604;28;20103;-75
2023/09/18 12:36:47;;;;;;;7.35;3.03;;;24.50;99.90;;;;;;5075384;28;20035;-74
2023/09/18 12:39:17;;;;;;;5.80;2.25;;;24.60;99.90;;;;;;5070594;28;20460;-75
2023/09/18 12:41:47;;;;;;;4.05;2.55;;;24.40;99.90;;;;;;5067409;28;20098;-74
2023/09/18 12:44:14;;;;;;;5.53;2.92;;;24.40;99.90;;;;;;5072324;28;20110;-75